sensor_id;sensor_type;location;lat;lon;timestamp;P1;P2;P0
76661;PMS5003;65579;45.534;6.212;2023-10-31T00:00:43;2;2;
76661;PMS5003;65579;45.534;6.212;2023-10-31T00:03:08;1;1;
76661;PMS5003;65579;45.534;6.212;2023-10-31T00:05:33;1;1;
76661;PMS5003;65579;45.534;6.212;2023-10-31T00:07:58;1;1;
76661;PMS5003;65579;45.534;6.212;2023-10-31T00:10:23;1;1;
76661;PMS5003;65579;45.534;6.212;2023-10-31T00:12:49;1;1;
76661;PMS5003;65579;45.534;6.212;2023-10-31T00:15:14;1;1;
76661;PMS5003;65579;45.534;6.212;2023-10-31T00:17:39;0;0;
76661;PMS5003;65579;45.534;6.212;2023-10-31T00:20:05;1;1;
76661;PMS5003;65579;45.534;6.212;2023-10-31T00:22:29;1;1;
76661;PMS5003;65579;45.534;6.212;2023-10-31T00:24:55;1;1;
76661;PMS5003;65579;45.534;6.212;2023-10-31T00:27:20;1;1;
76661;PMS5003;65579;45.534;6.212;2023-10-31T00:29:45;7;4;
76661;PMS5003;65579;45.534;6.212;2023-10-31T00:32:11;5;4;
76661;PMS5003;65579;45.534;6.212;2023-10-31T00:34:36;7;6;
76661;PMS5003;65579;45.534;6.212;2023-10-31T00:37:01;3;3;
76661;PMS5003;65579;45.534;6.212;2023-10-31T00:39:26;1;1;
76661;PMS5003;65579;45.534;6.212;2023-10-31T00:41:52;1;1;
76661;PMS5003;65579;45.534;6.212;2023-10-31T00:44:17;1;1;
76661;PMS5003;65579;45.534;6.212;2023-10-31T00:46:43;2;2;
76661;PMS5003;65579;45.534;6.212;2023-10-31T00:49:08;18;18;
76661;PMS5003;65579;45.534;6.212;2023-10-31T00:51:33;14;12;
76661;PMS5003;65579;45.534;6.212;2023-10-31T00:53:59;2;2;
76661;PMS5003;65579;45.534;6.212;2023-10-31T00:56:24;2;1;
76661;PMS5003;65579;45.534;6.212;2023-10-31T00:58:49;0;0;
76661;PMS5003;65579;45.534;6.212;2023-10-31T01:01:15;0;0;
76661;PMS5003;65579;45.534;6.212;2023-10-31T01:03:40;1;1;
76661;PMS5003;65579;45.534;6.212;2023-10-31T01:06:05;1;1;
76661;PMS5003;65579;45.534;6.212;2023-10-31T01:08:30;2;1;
76661;PMS5003;65579;45.534;6.212;2023-10-31T01:10:56;2;1;
76661;PMS5003;65579;45.534;6.212;2023-10-31T01:13:21;1;1;
76661;PMS5003;65579;45.534;6.212;2023-10-31T01:15:46;1;1;
76661;PMS5003;65579;45.534;6.212;2023-10-31T01:18:11;0;0;
76661;PMS5003;65579;45.534;6.212;2023-10-31T01:20:37;1;1;
76661;PMS5003;65579;45.534;6.212;2023-10-31T01:23:02;0;0;
76661;PMS5003;65579;45.534;6.212;2023-10-31T01:25:27;0;0;
76661;PMS5003;65579;45.534;6.212;2023-10-31T01:27:52;0;0;
76661;PMS5003;65579;45.534;6.212;2023-10-31T01:30:18;0;0;
76661;PMS5003;65579;45.534;6.212;2023-10-31T01:32:43;1;1;
76661;PMS5003;65579;45.534;6.212;2023-10-31T01:35:08;0;0;
76661;PMS5003;65579;45.534;6.212;2023-10-31T01:37:33;0;0;
76661;PMS5003;65579;45.534;6.212;2023-10-31T01:39:59;0;0;
76661;PMS5003;65579;45.534;6.212;2023-10-31T01:42:24;0;0;
76661;PMS5003;65579;45.534;6.212;2023-10-31T01:44:49;0;0;
76661;PMS5003;65579;45.534;6.212;2023-10-31T01:47:14;0;0;
76661;PMS5003;65579;45.534;6.212;2023-10-31T01:49:40;1;1;
76661;PMS5003;65579;45.534;6.212;2023-10-31T01:52:05;0;0;
76661;PMS5003;65579;45.534;6.212;2023-10-31T01:54:30;0;0;
76661;PMS5003;65579;45.534;6.212;2023-10-31T01:56:56;2;0;
76661;PMS5003;65579;45.534;6.212;2023-10-31T01:59:21;0;0;
76661;PMS5003;65579;45.534;6.212;2023-10-31T02:01:46;0;0;
76661;PMS5003;65579;45.534;6.212;2023-10-31T02:04:11;0;0;
76661;PMS5003;65579;45.534;6.212;2023-10-31T02:06:37;0;0;
76661;PMS5003;65579;45.534;6.212;2023-10-31T02:09:02;0;0;
76661;PMS5003;65579;45.534;6.212;2023-10-31T02:11:27;0;0;
76661;PMS5003;65579;45.534;6.212;2023-10-31T02:13:52;1;1;
76661;PMS5003;65579;45.534;6.212;2023-10-31T02:16:18;0;0;
76661;PMS5003;65579;45.534;6.212;2023-10-31T02:18:43;0;0;
76661;PMS5003;65579;45.534;6.212;2023-10-31T02:21:08;1;1;
76661;PMS5003;65579;45.534;6.212;2023-10-31T02:23:33;6;4;
76661;PMS5003;65579;45.534;6.212;2023-10-31T02:25:58;3;3;
76661;PMS5003;65579;45.534;6.212;2023-10-31T02:28:24;2;0;
76661;PMS5003;65579;45.534;6.212;2023-10-31T02:30:49;2;1;
76661;PMS5003;65579;45.534;6.212;2023-10-31T02:33:14;0;0;
76661;PMS5003;65579;45.534;6.212;2023-10-31T02:35:39;1;0;
76661;PMS5003;65579;45.534;6.212;2023-10-31T02:38:05;1;1;
76661;PMS5003;65579;45.534;6.212;2023-10-31T02:40:30;0;0;
76661;PMS5003;65579;45.534;6.212;2023-10-31T02:42:55;0;0;
76661;PMS5003;65579;45.534;6.212;2023-10-31T02:45:20;0;0;
76661;PMS5003;65579;45.534;6.212;2023-10-31T02:47:45;0;0;
76661;PMS5003;65579;45.534;6.212;2023-10-31T02:50:11;0;0;
76661;PMS5003;65579;45.534;6.212;2023-10-31T02:52:36;0;0;
76661;PMS5003;65579;45.534;6.212;2023-10-31T02:55:01;0;0;
76661;PMS5003;65579;45.534;6.212;2023-10-31T02:57:28;0;0;
76661;PMS5003;65579;45.534;6.212;2023-10-31T02:59:52;0;0;
76661;PMS5003;65579;45.534;6.212;2023-10-31T03:02:17;0;0;
76661;PMS5003;65579;45.534;6.212;2023-10-31T03:04:42;2;1;
76661;PMS5003;65579;45.534;6.212;2023-10-31T03:07:07;0;0;
76661;PMS5003;65579;45.534;6.212;2023-10-31T03:09:33;0;0;
76661;PMS5003;65579;45.534;6.212;2023-10-31T03:11:58;1;1;
76661;PMS5003;65579;45.534;6.212;2023-10-31T03:14:23;0;0;
76661;PMS5003;65579;45.534;6.212;2023-10-31T03:16:48;0;0;
76661;PMS5003;65579;45.534;6.212;2023-10-31T03:19:13;0;0;
76661;PMS5003;65579;45.534;6.212;2023-10-31T03:21:39;1;1;
76661;PMS5003;65579;45.534;6.212;2023-10-31T03:24:04;0;0;
76661;PMS5003;65579;45.534;6.212;2023-10-31T03:26:30;0;0;
76661;PMS5003;65579;45.534;6.212;2023-10-31T03:28:55;0;0;
76661;PMS5003;65579;45.534;6.212;2023-10-31T03:31:20;0;0;
76661;PMS5003;65579;45.534;6.212;2023-10-31T03:33:45;1;1;
76661;PMS5003;65579;45.534;6.212;2023-10-31T03:36:11;0;0;
76661;PMS5003;65579;45.534;6.212;2023-10-31T03:38:36;1;1;
76661;PMS5003;65579;45.534;6.212;2023-10-31T03:41:01;0;0;
76661;PMS5003;65579;45.534;6.212;2023-10-31T03:43:26;1;1;
76661;PMS5003;65579;45.534;6.212;2023-10-31T03:45:51;0;0;
76661;PMS5003;65579;45.534;6.212;2023-10-31T03:48:17;0;0;
76661;PMS5003;65579;45.534;6.212;2023-10-31T03:50:42;0;0;
76661;PMS5003;65579;45.534;6.212;2023-10-31T03:53:07;0;0;
76661;PMS5003;65579;45.534;6.212;2023-10-31T03:55:32;2;1;
76661;PMS5003;65579;45.534;6.212;2023-10-31T03:57:58;0;0;
76661;PMS5003;65579;45.534;6.212;2023-10-31T04:00:23;1;1;
76661;PMS5003;65579;45.534;6.212;2023-10-31T04:02:48;2;0;
76661;PMS5003;65579;45.534;6.212;2023-10-31T04:05:14;0;0;
76661;PMS5003;65579;45.534;6.212;2023-10-31T04:07:39;0;0;
76661;PMS5003;65579;45.534;6.212;2023-10-31T04:10:05;1;1;
76661;PMS5003;65579;45.534;6.212;2023-10-31T04:12:30;0;0;
76661;PMS5003;65579;45.534;6.212;2023-10-31T04:14:55;1;1;
76661;PMS5003;65579;45.534;6.212;2023-10-31T04:17:21;1;1;
76661;PMS5003;65579;45.534;6.212;2023-10-31T04:19:46;1;1;
76661;PMS5003;65579;45.534;6.212;2023-10-31T04:22:12;1;1;
76661;PMS5003;65579;45.534;6.212;2023-10-31T04:24:37;2;1;
76661;PMS5003;65579;45.534;6.212;2023-10-31T04:27:02;1;1;
76661;PMS5003;65579;45.534;6.212;2023-10-31T04:29:27;3;0;
76661;PMS5003;65579;45.534;6.212;2023-10-31T04:31:53;1;1;
76661;PMS5003;65579;45.534;6.212;2023-10-31T04:34:18;2;1;
76661;PMS5003;65579;45.534;6.212;2023-10-31T04:36:43;1;1;
76661;PMS5003;65579;45.534;6.212;2023-10-31T04:39:09;2;1;
76661;PMS5003;65579;45.534;6.212;2023-10-31T04:41:34;1;1;
76661;PMS5003;65579;45.534;6.212;2023-10-31T04:43:59;1;1;
76661;PMS5003;65579;45.534;6.212;2023-10-31T04:46:25;10;8;
76661;PMS5003;65579;45.534;6.212;2023-10-31T04:48:50;9;9;
76661;PMS5003;65579;45.534;6.212;2023-10-31T04:51:16;1;1;
76661;PMS5003;65579;45.534;6.212;2023-10-31T04:53:41;2;2;
76661;PMS5003;65579;45.534;6.212;2023-10-31T04:56:11;0;0;
76661;PMS5003;65579;45.534;6.212;2023-10-31T04:58:31;3;1;
76661;PMS5003;65579;45.534;6.212;2023-10-31T05:00:57;3;2;
76661;PMS5003;65579;45.534;6.212;2023-10-31T05:03:22;3;1;
76661;PMS5003;65579;45.534;6.212;2023-10-31T05:05:47;1;1;
76661;PMS5003;65579;45.534;6.212;2023-10-31T05:08:12;2;2;
76661;PMS5003;65579;45.534;6.212;2023-10-31T05:10:38;0;0;
76661;PMS5003;65579;45.534;6.212;2023-10-31T05:13:04;1;1;
76661;PMS5003;65579;45.534;6.212;2023-10-31T05:15:29;2;2;
76661;PMS5003;65579;45.534;6.212;2023-10-31T05:17:55;10;7;
76661;PMS5003;65579;45.534;6.212;2023-10-31T05:20:20;4;4;
76661;PMS5003;65579;45.534;6.212;2023-10-31T05:22:46;3;3;
76661;PMS5003;65579;45.534;6.212;2023-10-31T05:25:11;1;1;
76661;PMS5003;65579;45.534;6.212;2023-10-31T05:27:36;2;2;
76661;PMS5003;65579;45.534;6.212;2023-10-31T05:30:02;2;2;
76661;PMS5003;65579;45.534;6.212;2023-10-31T05:32:27;1;1;
76661;PMS5003;65579;45.534;6.212;2023-10-31T05:34:53;2;2;
76661;PMS5003;65579;45.534;6.212;2023-10-31T05:37:18;1;1;
76661;PMS5003;65579;45.534;6.212;2023-10-31T05:39:43;2;2;
76661;PMS5003;65579;45.534;6.212;2023-10-31T05:42:08;1;1;
76661;PMS5003;65579;45.534;6.212;2023-10-31T05:44:33;2;2;
76661;PMS5003;65579;45.534;6.212;2023-10-31T05:46:59;1;1;
76661;PMS5003;65579;45.534;6.212;2023-10-31T05:49:24;1;1;
76661;PMS5003;65579;45.534;6.212;2023-10-31T05:51:50;7;7;
76661;PMS5003;65579;45.534;6.212;2023-10-31T05:54:14;5;5;
76661;PMS5003;65579;45.534;6.212;2023-10-31T05:56:40;2;2;
76661;PMS5003;65579;45.534;6.212;2023-10-31T05:59:05;2;2;
76661;PMS5003;65579;45.534;6.212;2023-10-31T06:01:30;1;1;
76661;PMS5003;65579;45.534;6.212;2023-10-31T06:03:55;2;2;
76661;PMS5003;65579;45.534;6.212;2023-10-31T06:06:21;1;1;
76661;PMS5003;65579;45.534;6.212;2023-10-31T06:08:46;1;1;
76661;PMS5003;65579;45.534;6.212;2023-10-31T06:11:11;2;2;
76661;PMS5003;65579;45.534;6.212;2023-10-31T06:13:36;2;2;
76661;PMS5003;65579;45.534;6.212;2023-10-31T06:16:02;2;2;
76661;PMS5003;65579;45.534;6.212;2023-10-31T06:18:27;0;0;
76661;PMS5003;65579;45.534;6.212;2023-10-31T06:20:52;2;2;
76661;PMS5003;65579;45.534;6.212;2023-10-31T06:23:18;3;2;
76661;PMS5003;65579;45.534;6.212;2023-10-31T06:25:43;8;7;
76661;PMS5003;65579;45.534;6.212;2023-10-31T06:28:08;9;9;
76661;PMS5003;65579;45.534;6.212;2023-10-31T06:30:34;8;8;
76661;PMS5003;65579;45.534;6.212;2023-10-31T06:32:59;9;8;
76661;PMS5003;65579;45.534;6.212;2023-10-31T06:35:24;7;6;
76661;PMS5003;65579;45.534;6.212;2023-10-31T06:37:49;7;7;
76661;PMS5003;65579;45.534;6.212;2023-10-31T06:40:15;10;9;
76661;PMS5003;65579;45.534;6.212;2023-10-31T06:42:40;9;9;
76661;PMS5003;65579;45.534;6.212;2023-10-31T06:45:05;7;7;
76661;PMS5003;65579;45.534;6.212;2023-10-31T06:47:30;9;9;
76661;PMS5003;65579;45.534;6.212;2023-10-31T06:49:56;12;12;
76661;PMS5003;65579;45.534;6.212;2023-10-31T06:52:21;8;8;
76661;PMS5003;65579;45.534;6.212;2023-10-31T06:54:46;7;7;
76661;PMS5003;65579;45.534;6.212;2023-10-31T06:57:11;6;6;
76661;PMS5003;65579;45.534;6.212;2023-10-31T06:59:36;5;5;
76661;PMS5003;65579;45.534;6.212;2023-10-31T07:02:02;5;5;
76661;PMS5003;65579;45.534;6.212;2023-10-31T07:04:27;6;6;
76661;PMS5003;65579;45.534;6.212;2023-10-31T07:06:52;4;4;
76661;PMS5003;65579;45.534;6.212;2023-10-31T07:09:17;10;10;
76661;PMS5003;65579;45.534;6.212;2023-10-31T07:11:43;26;25;
76661;PMS5003;65579;45.534;6.212;2023-10-31T07:14:08;14;14;
76661;PMS5003;65579;45.534;6.212;2023-10-31T07:16:34;12;11;
76661;PMS5003;65579;45.534;6.212;2023-10-31T07:18:59;6;6;
76661;PMS5003;65579;45.534;6.212;2023-10-31T07:21:24;3;3;
76661;PMS5003;65579;45.534;6.212;2023-10-31T07:23:50;3;3;
76661;PMS5003;65579;45.534;6.212;2023-10-31T07:26:15;3;3;
76661;PMS5003;65579;45.534;6.212;2023-10-31T07:28:40;3;3;
76661;PMS5003;65579;45.534;6.212;2023-10-31T07:31:05;4;2;
76661;PMS5003;65579;45.534;6.212;2023-10-31T07:33:30;3;2;
76661;PMS5003;65579;45.534;6.212;2023-10-31T07:35:56;10;10;
76661;PMS5003;65579;45.534;6.212;2023-10-31T07:38:21;7;7;
76661;PMS5003;65579;45.534;6.212;2023-10-31T07:40:47;6;5;
76661;PMS5003;65579;45.534;6.212;2023-10-31T07:43:12;4;4;
76661;PMS5003;65579;45.534;6.212;2023-10-31T07:45:37;9;9;
76661;PMS5003;65579;45.534;6.212;2023-10-31T07:48:03;12;12;
76661;PMS5003;65579;45.534;6.212;2023-10-31T07:50:28;10;10;
76661;PMS5003;65579;45.534;6.212;2023-10-31T07:52:53;4;4;
76661;PMS5003;65579;45.534;6.212;2023-10-31T07:55:18;2;2;
76661;PMS5003;65579;45.534;6.212;2023-10-31T07:57:43;2;2;
76661;PMS5003;65579;45.534;6.212;2023-10-31T08:00:09;2;2;
76661;PMS5003;65579;45.534;6.212;2023-10-31T08:02:34;3;3;
76661;PMS5003;65579;45.534;6.212;2023-10-31T08:04:59;2;2;
76661;PMS5003;65579;45.534;6.212;2023-10-31T08:07:24;2;2;
76661;PMS5003;65579;45.534;6.212;2023-10-31T08:09:50;3;3;
76661;PMS5003;65579;45.534;6.212;2023-10-31T08:12:15;1;1;
76661;PMS5003;65579;45.534;6.212;2023-10-31T08:14:40;1;1;
76661;PMS5003;65579;45.534;6.212;2023-10-31T08:17:05;2;2;
76661;PMS5003;65579;45.534;6.212;2023-10-31T08:19:30;2;2;
76661;PMS5003;65579;45.534;6.212;2023-10-31T08:21:55;1;1;
76661;PMS5003;65579;45.534;6.212;2023-10-31T08:24:20;2;2;
76661;PMS5003;65579;45.534;6.212;2023-10-31T08:26:46;3;2;
76661;PMS5003;65579;45.534;6.212;2023-10-31T08:29:11;2;2;
76661;PMS5003;65579;45.534;6.212;2023-10-31T08:31:36;4;4;
76661;PMS5003;65579;45.534;6.212;2023-10-31T08:34:01;6;6;
76661;PMS5003;65579;45.534;6.212;2023-10-31T08:36:27;12;12;
76661;PMS5003;65579;45.534;6.212;2023-10-31T08:38:52;14;11;
76661;PMS5003;65579;45.534;6.212;2023-10-31T08:41:17;14;12;
76661;PMS5003;65579;45.534;6.212;2023-10-31T08:43:42;13;13;
76661;PMS5003;65579;45.534;6.212;2023-10-31T08:46:08;16;15;
76661;PMS5003;65579;45.534;6.212;2023-10-31T08:48:33;11;8;
76661;PMS5003;65579;45.534;6.212;2023-10-31T08:50:58;7;6;
76661;PMS5003;65579;45.534;6.212;2023-10-31T08:53:23;10;7;
76661;PMS5003;65579;45.534;6.212;2023-10-31T08:55:49;4;4;
76661;PMS5003;65579;45.534;6.212;2023-10-31T08:58:15;5;5;
76661;PMS5003;65579;45.534;6.212;2023-10-31T09:00:40;3;3;
76661;PMS5003;65579;45.534;6.212;2023-10-31T09:03:05;2;2;
76661;PMS5003;65579;45.534;6.212;2023-10-31T09:05:31;0;0;
76661;PMS5003;65579;45.534;6.212;2023-10-31T09:07:56;2;2;
76661;PMS5003;65579;45.534;6.212;2023-10-31T09:10:21;1;1;
76661;PMS5003;65579;45.534;6.212;2023-10-31T09:12:46;4;3;
76661;PMS5003;65579;45.534;6.212;2023-10-31T09:15:11;2;2;
76661;PMS5003;65579;45.534;6.212;2023-10-31T09:17:36;2;2;
76661;PMS5003;65579;45.534;6.212;2023-10-31T09:20:02;1;1;
76661;PMS5003;65579;45.534;6.212;2023-10-31T09:22:27;3;3;
76661;PMS5003;65579;45.534;6.212;2023-10-31T09:24:52;4;4;
76661;PMS5003;65579;45.534;6.212;2023-10-31T09:27:18;10;10;
76661;PMS5003;65579;45.534;6.212;2023-10-31T09:29:43;4;4;
76661;PMS5003;65579;45.534;6.212;2023-10-31T09:32:08;6;5;
76661;PMS5003;65579;45.534;6.212;2023-10-31T09:34:33;1;1;
76661;PMS5003;65579;45.534;6.212;2023-10-31T09:36:58;4;4;
76661;PMS5003;65579;45.534;6.212;2023-10-31T09:39:23;7;7;
76661;PMS5003;65579;45.534;6.212;2023-10-31T09:41:49;6;6;
76661;PMS5003;65579;45.534;6.212;2023-10-31T09:44:14;6;5;
76661;PMS5003;65579;45.534;6.212;2023-10-31T09:46:39;4;4;
76661;PMS5003;65579;45.534;6.212;2023-10-31T09:49:04;4;2;
76661;PMS5003;65579;45.534;6.212;2023-10-31T09:51:30;3;3;
76661;PMS5003;65579;45.534;6.212;2023-10-31T09:53:55;3;3;
76661;PMS5003;65579;45.534;6.212;2023-10-31T09:56:20;5;3;
76661;PMS5003;65579;45.534;6.212;2023-10-31T09:58:45;6;6;
76661;PMS5003;65579;45.534;6.212;2023-10-31T10:01:10;8;8;
76661;PMS5003;65579;45.534;6.212;2023-10-31T10:03:36;6;6;
76661;PMS5003;65579;45.534;6.212;2023-10-31T10:06:01;8;8;
76661;PMS5003;65579;45.534;6.212;2023-10-31T10:08:26;9;8;
76661;PMS5003;65579;45.534;6.212;2023-10-31T10:10:51;6;6;
76661;PMS5003;65579;45.534;6.212;2023-10-31T10:13:17;8;8;
76661;PMS5003;65579;45.534;6.212;2023-10-31T10:15:43;6;6;
76661;PMS5003;65579;45.534;6.212;2023-10-31T10:18:07;5;5;
76661;PMS5003;65579;45.534;6.212;2023-10-31T10:20:32;5;5;
76661;PMS5003;65579;45.534;6.212;2023-10-31T10:23:02;6;6;
76661;PMS5003;65579;45.534;6.212;2023-10-31T10:25:23;8;8;
76661;PMS5003;65579;45.534;6.212;2023-10-31T10:27:48;3;3;
76661;PMS5003;65579;45.534;6.212;2023-10-31T10:30:14;3;2;
76661;PMS5003;65579;45.534;6.212;2023-10-31T10:32:38;4;4;
76661;PMS5003;65579;45.534;6.212;2023-10-31T10:35:04;5;5;
76661;PMS5003;65579;45.534;6.212;2023-10-31T10:37:29;4;4;
76661;PMS5003;65579;45.534;6.212;2023-10-31T10:39:54;5;5;
76661;PMS5003;65579;45.534;6.212;2023-10-31T10:42:19;4;4;
76661;PMS5003;65579;45.534;6.212;2023-10-31T10:44:44;4;4;
76661;PMS5003;65579;45.534;6.212;2023-10-31T10:47:09;6;5;
76661;PMS5003;65579;45.534;6.212;2023-10-31T10:49:35;3;3;
76661;PMS5003;65579;45.534;6.212;2023-10-31T10:52:01;4;4;
76661;PMS5003;65579;45.534;6.212;2023-10-31T10:54:26;4;4;
76661;PMS5003;65579;45.534;6.212;2023-10-31T10:56:53;5;5;
76661;PMS5003;65579;45.534;6.212;2023-10-31T10:59:18;5;5;
76661;PMS5003;65579;45.534;6.212;2023-10-31T11:01:41;6;4;
76661;PMS5003;65579;45.534;6.212;2023-10-31T11:04:06;5;5;
76661;PMS5003;65579;45.534;6.212;2023-10-31T11:06:31;6;5;
76661;PMS5003;65579;45.534;6.212;2023-10-31T11:08:56;5;4;
76661;PMS5003;65579;45.534;6.212;2023-10-31T11:11:22;4;4;
76661;PMS5003;65579;45.534;6.212;2023-10-31T11:13:46;2;2;
76661;PMS5003;65579;45.534;6.212;2023-10-31T11:16:13;4;4;
76661;PMS5003;65579;45.534;6.212;2023-10-31T11:18:37;3;3;
76661;PMS5003;65579;45.534;6.212;2023-10-31T11:21:02;3;2;
76661;PMS5003;65579;45.534;6.212;2023-10-31T11:23:27;2;2;
76661;PMS5003;65579;45.534;6.212;2023-10-31T11:25:52;0;0;
76661;PMS5003;65579;45.534;6.212;2023-10-31T11:28:18;3;1;
76661;PMS5003;65579;45.534;6.212;2023-10-31T11:30:43;1;1;
76661;PMS5003;65579;45.534;6.212;2023-10-31T11:33:11;2;2;
76661;PMS5003;65579;45.534;6.212;2023-10-31T11:35:33;2;2;
76661;PMS5003;65579;45.534;6.212;2023-10-31T11:38:02;1;1;
76661;PMS5003;65579;45.534;6.212;2023-10-31T11:40:24;2;2;
76661;PMS5003;65579;45.534;6.212;2023-10-31T11:42:49;3;3;
76661;PMS5003;65579;45.534;6.212;2023-10-31T11:50:04;4;4;
76661;PMS5003;65579;45.534;6.212;2023-10-31T11:52:29;3;3;
76661;PMS5003;65579;45.534;6.212;2023-10-31T11:54:55;3;3;
76661;PMS5003;65579;45.534;6.212;2023-10-31T11:57:27;3;3;
76661;PMS5003;65579;45.534;6.212;2023-10-31T11:59:45;3;2;
76661;PMS5003;65579;45.534;6.212;2023-10-31T12:02:12;1;1;
76661;PMS5003;65579;45.534;6.212;2023-10-31T12:04:35;2;2;
76661;PMS5003;65579;45.534;6.212;2023-10-31T12:07:00;4;4;
76661;PMS5003;65579;45.534;6.212;2023-10-31T12:09:25;3;3;
76661;PMS5003;65579;45.534;6.212;2023-10-31T12:11:50;4;4;
76661;PMS5003;65579;45.534;6.212;2023-10-31T12:14:18;3;3;
76661;PMS5003;65579;45.534;6.212;2023-10-31T12:16:41;5;3;
76661;PMS5003;65579;45.534;6.212;2023-10-31T12:19:06;2;2;
76661;PMS5003;65579;45.534;6.212;2023-10-31T12:21:35;2;2;
76661;PMS5003;65579;45.534;6.212;2023-10-31T12:26:21;1;1;
76661;PMS5003;65579;45.534;6.212;2023-10-31T12:28:46;1;1;
76661;PMS5003;65579;45.534;6.212;2023-10-31T12:31:11;4;4;
76661;PMS5003;65579;45.534;6.212;2023-10-31T12:33:37;3;3;
76661;PMS5003;65579;45.534;6.212;2023-10-31T12:36:02;2;2;
76661;PMS5003;65579;45.534;6.212;2023-10-31T12:38:27;7;7;
76661;PMS5003;65579;45.534;6.212;2023-10-31T12:40:52;7;7;
76661;PMS5003;65579;45.534;6.212;2023-10-31T12:43:18;7;7;
76661;PMS5003;65579;45.534;6.212;2023-10-31T12:45:43;5;5;
76661;PMS5003;65579;45.534;6.212;2023-10-31T12:48:09;3;3;
76661;PMS5003;65579;45.534;6.212;2023-10-31T12:50:34;6;6;
76661;PMS5003;65579;45.534;6.212;2023-10-31T12:52:59;11;8;
76661;PMS5003;65579;45.534;6.212;2023-10-31T12:55:25;6;6;
76661;PMS5003;65579;45.534;6.212;2023-10-31T12:57:49;2;2;
76661;PMS5003;65579;45.534;6.212;2023-10-31T13:00:15;4;4;
76661;PMS5003;65579;45.534;6.212;2023-10-31T13:02:40;6;6;
76661;PMS5003;65579;45.534;6.212;2023-10-31T13:05:09;4;4;
76661;PMS5003;65579;45.534;6.212;2023-10-31T13:07:30;3;3;
76661;PMS5003;65579;45.534;6.212;2023-10-31T13:09:55;4;4;
76661;PMS5003;65579;45.534;6.212;2023-10-31T13:12:20;5;5;
76661;PMS5003;65579;45.534;6.212;2023-10-31T13:14:46;2;2;
76661;PMS5003;65579;45.534;6.212;2023-10-31T13:17:11;4;4;
76661;PMS5003;65579;45.534;6.212;2023-10-31T13:19:36;9;8;
76661;PMS5003;65579;45.534;6.212;2023-10-31T13:22:01;5;5;
76661;PMS5003;65579;45.534;6.212;2023-10-31T13:24:27;1;1;
76661;PMS5003;65579;45.534;6.212;2023-10-31T13:26:52;3;3;
76661;PMS5003;65579;45.534;6.212;2023-10-31T13:29:17;3;3;
76661;PMS5003;65579;45.534;6.212;2023-10-31T13:31:42;7;7;
76661;PMS5003;65579;45.534;6.212;2023-10-31T13:34:08;5;4;
76661;PMS5003;65579;45.534;6.212;2023-10-31T13:36:33;6;6;
76661;PMS5003;65579;45.534;6.212;2023-10-31T13:38:58;7;7;
76661;PMS5003;65579;45.534;6.212;2023-10-31T13:41:23;9;8;
76661;PMS5003;65579;45.534;6.212;2023-10-31T13:43:49;9;9;
76661;PMS5003;65579;45.534;6.212;2023-10-31T13:46:14;11;11;
76661;PMS5003;65579;45.534;6.212;2023-10-31T13:48:39;16;15;
76661;PMS5003;65579;45.534;6.212;2023-10-31T13:51:05;15;14;
76661;PMS5003;65579;45.534;6.212;2023-10-31T13:53:30;12;12;
76661;PMS5003;65579;45.534;6.212;2023-10-31T13:55:56;10;10;
76661;PMS5003;65579;45.534;6.212;2023-10-31T13:58:21;8;8;
76661;PMS5003;65579;45.534;6.212;2023-10-31T14:00:46;6;6;
76661;PMS5003;65579;45.534;6.212;2023-10-31T14:03:12;9;8;
76661;PMS5003;65579;45.534;6.212;2023-10-31T14:05:37;7;7;
76661;PMS5003;65579;45.534;6.212;2023-10-31T14:08:02;6;6;
76661;PMS5003;65579;45.534;6.212;2023-10-31T14:10:27;6;6;
76661;PMS5003;65579;45.534;6.212;2023-10-31T14:12:53;8;7;
76661;PMS5003;65579;45.534;6.212;2023-10-31T14:15:18;7;7;
76661;PMS5003;65579;45.534;6.212;2023-10-31T14:17:43;7;7;
76661;PMS5003;65579;45.534;6.212;2023-10-31T14:20:09;8;8;
76661;PMS5003;65579;45.534;6.212;2023-10-31T14:22:35;9;9;
76661;PMS5003;65579;45.534;6.212;2023-10-31T14:25:00;8;8;
76661;PMS5003;65579;45.534;6.212;2023-10-31T14:27:25;10;10;
76661;PMS5003;65579;45.534;6.212;2023-10-31T14:29:50;12;12;
76661;PMS5003;65579;45.534;6.212;2023-10-31T14:32:16;8;7;
76661;PMS5003;65579;45.534;6.212;2023-10-31T14:34:41;6;5;
76661;PMS5003;65579;45.534;6.212;2023-10-31T14:37:06;4;4;
76661;PMS5003;65579;45.534;6.212;2023-10-31T14:39:32;7;7;
76661;PMS5003;65579;45.534;6.212;2023-10-31T14:41:57;6;6;
76661;PMS5003;65579;45.534;6.212;2023-10-31T14:44:22;5;5;
76661;PMS5003;65579;45.534;6.212;2023-10-31T14:46:48;8;8;
76661;PMS5003;65579;45.534;6.212;2023-10-31T14:49:13;4;4;
76661;PMS5003;65579;45.534;6.212;2023-10-31T14:51:38;5;5;
76661;PMS5003;65579;45.534;6.212;2023-10-31T14:54:04;6;6;
76661;PMS5003;65579;45.534;6.212;2023-10-31T14:56:29;5;5;
76661;PMS5003;65579;45.534;6.212;2023-10-31T14:58:54;5;5;
76661;PMS5003;65579;45.534;6.212;2023-10-31T15:01:19;6;6;
76661;PMS5003;65579;45.534;6.212;2023-10-31T15:03:44;5;5;
76661;PMS5003;65579;45.534;6.212;2023-10-31T15:06:10;11;11;
76661;PMS5003;65579;45.534;6.212;2023-10-31T15:08:35;14;10;
76661;PMS5003;65579;45.534;6.212;2023-10-31T15:11:00;8;8;
76661;PMS5003;65579;45.534;6.212;2023-10-31T15:13:26;5;5;
76661;PMS5003;65579;45.534;6.212;2023-10-31T15:15:51;7;6;
76661;PMS5003;65579;45.534;6.212;2023-10-31T15:18:16;8;6;
76661;PMS5003;65579;45.534;6.212;2023-10-31T15:20:41;6;6;
76661;PMS5003;65579;45.534;6.212;2023-10-31T15:23:06;4;4;
76661;PMS5003;65579;45.534;6.212;2023-10-31T15:25:31;5;5;
76661;PMS5003;65579;45.534;6.212;2023-10-31T15:27:57;4;3;
76661;PMS5003;65579;45.534;6.212;2023-10-31T15:30:22;4;4;
76661;PMS5003;65579;45.534;6.212;2023-10-31T15:32:47;4;4;
76661;PMS5003;65579;45.534;6.212;2023-10-31T15:35:12;7;7;
76661;PMS5003;65579;45.534;6.212;2023-10-31T15:37:38;5;5;
76661;PMS5003;65579;45.534;6.212;2023-10-31T15:40:03;9;7;
76661;PMS5003;65579;45.534;6.212;2023-10-31T15:42:28;9;9;
76661;PMS5003;65579;45.534;6.212;2023-10-31T15:44:53;10;9;
76661;PMS5003;65579;45.534;6.212;2023-10-31T15:47:19;6;6;
76661;PMS5003;65579;45.534;6.212;2023-10-31T15:49:44;8;8;
76661;PMS5003;65579;45.534;6.212;2023-10-31T15:52:09;10;10;
76661;PMS5003;65579;45.534;6.212;2023-10-31T15:54:34;9;9;
76661;PMS5003;65579;45.534;6.212;2023-10-31T15:56:59;14;11;
76661;PMS5003;65579;45.534;6.212;2023-10-31T15:59:25;9;9;
76661;PMS5003;65579;45.534;6.212;2023-10-31T16:01:50;11;11;
76661;PMS5003;65579;45.534;6.212;2023-10-31T16:04:16;13;12;
76661;PMS5003;65579;45.534;6.212;2023-10-31T16:06:41;10;10;
76661;PMS5003;65579;45.534;6.212;2023-10-31T16:09:06;9;9;
76661;PMS5003;65579;45.534;6.212;2023-10-31T16:11:31;9;9;
76661;PMS5003;65579;45.534;6.212;2023-10-31T16:13:56;8;8;
76661;PMS5003;65579;45.534;6.212;2023-10-31T16:16:22;11;10;
76661;PMS5003;65579;45.534;6.212;2023-10-31T16:18:47;27;25;
76661;PMS5003;65579;45.534;6.212;2023-10-31T16:21:16;19;19;
76661;PMS5003;65579;45.534;6.212;2023-10-31T16:23:38;13;13;
76661;PMS5003;65579;45.534;6.212;2023-10-31T16:26:03;17;15;
76661;PMS5003;65579;45.534;6.212;2023-10-31T16:28:28;23;21;
76661;PMS5003;65579;45.534;6.212;2023-10-31T16:30:53;98;88;
76661;PMS5003;65579;45.534;6.212;2023-10-31T16:33:19;42;42;
76661;PMS5003;65579;45.534;6.212;2023-10-31T16:35:44;37;34;
76661;PMS5003;65579;45.534;6.212;2023-10-31T16:38:10;53;50;
76661;PMS5003;65579;45.534;6.212;2023-10-31T16:40:36;38;38;